Terminal Aerodrome Forecast
Issued by NWS Upton, NY

Home | Current Version | Previous Version | Text Only | Print | Product List | Glossary On
Versions: 1 2 3 4 5 6 7 8 9 10 11 12 13 14 15 16 17 18 19 20 21 22 23 24 25 26 27 28 29 30 31 32 33 34 35 36
000
FTUS41 KOKX 180640 AAB
TAFISP
TAF AMD
KISP 180640Z 1807/1906 01005KT 5SM -RASN BR SCT004 OVC035
      TEMPO 1807/1808 2SM -RASN BR BKN004 OVC012
     FM180800 35005KT 4SM BR SCT009 OVC035
      TEMPO 1808/1810 3SM BR BKN009
     FM181000 31010KT P6SM SCT015 BKN035
     FM181300 32015G23KT P6SM FEW035
     FM181900 29008KT P6SM SKC
     FM182300 VRB03KT P6SM SKC=

USA.gov is the U.S. government's official web portal to all federal, state and local government web resources and services.